Airfield :
LOGIN :

Register | Disclaimer

   EN    FR    IT 

 










Legend :    VFR   Marginal VFR   IFR   Intensive IFR   Very Intensive IFR
Visi :
Ceiling :
>= 8 km
>= 3000ft
5 to 8 km
1000 to 3000 ft
1500m to 5 km
500 to 1000 ft
800 to 1500m
200 to 500 ft
< 800m
< 200 ft
Symbols :   Thunderstorms  Fog  Heavy snow  Heavy precipitations  Wind > 20 kt
SIGMETs :     Misc.  Thunderstorms  Icing  Turbulence  Mountain Waves  Volcanic Ashes







- Airport Elevation : 42 ft
- IATA code : CAL
- Download approach charts


EGEC - Campbeltown

CURRENT METAR :
  • 171250Z 17020KT 4800 RA FEW009 SCT036 BKN048 15/14 Q1006

EXPIRED METARs :
  • 171220Z 17020KT 9000 RA FEW010 BKN048 14/14 Q1007
  • 171150Z 17019KT 9999 RA FEW010 BKN042 15/14 Q1007
  • 171120Z 17020KT 9999 RA FEW010 BKN041 BKN048 15/14 Q1007
  • 171050Z 17016KT 9999 RA BKN042 BKN048 15/14 Q1008
  • 171020Z 14013KT 9999 RA FEW010 BKN042 BKN048 15/14 Q1008

TAF TAF EGEC
Valid from the 17 at 12:00 until the 17 at 17:00 UTC


171102Z 1712/1717 16012KT 9999 FEW024 BKN040
TEMPO 1712/1717 18015G25KT 7000 RA BKN014
No reported NOTAMs for that airfield.



MET'MAP, your aeronautical weather chart ! - Copyright ORBIFLY December 2007 - Disclaimer

ORBIFLY MET'MAP TEAM :

Programming & Development : Alexandra Zaïnal
Concept & Development : Baudouin d'Aumeries
Co-Development & Prog : Marc-Olivier Méhu
Technical & hardware support : Manuel Goepfert

Contact : metmap@orbifly.com




SOURCES & CREDITS :

   NOAA